createdAt,value
2018-03-07T00:03:31.118Z,98605
2018-03-07T00:08:34.222Z,98611
2018-03-07T00:13:38.843Z,98612
2018-03-07T00:18:43.630Z,98620
2018-03-07T00:23:47.113Z,98617
2018-03-07T00:28:51.617Z,98620
2018-03-07T00:33:55.102Z,98625
2018-03-07T00:38:59.336Z,98625
2018-03-07T00:44:03.549Z,98632
2018-03-07T00:49:07.039Z,98627
2018-03-07T00:54:11.536Z,98624
2018-03-07T00:59:14.638Z,98623
2018-03-07T01:04:18.500Z,98619
2018-03-07T01:09:21.981Z,98616
2018-03-07T01:14:26.423Z,98613
2018-03-07T01:19:30.869Z,98614
2018-03-07T01:24:35.309Z,98614
2018-03-07T01:29:39.820Z,98623
2018-03-07T01:34:43.661Z,98613
2018-03-07T01:39:48.111Z,98621
2018-03-07T01:44:51.949Z,98615
2018-03-07T01:49:55.038Z,98615
2018-03-07T01:54:59.489Z,98615
2018-03-07T02:00:03.402Z,98609
2018-03-07T02:05:07.274Z,98606
2018-03-07T02:15:20.970Z,98601
2018-03-07T02:20:24.814Z,98606
2018-03-07T02:25:27.897Z,98608
2018-03-07T02:30:32.110Z,98605
2018-03-07T02:35:36.325Z,98604
2018-03-07T02:40:39.467Z,98610
2018-03-07T02:45:43.338Z,98609
2018-03-07T02:50:47.200Z,98609
2018-03-07T02:55:50.305Z,98609
2018-03-07T03:00:53.397Z,98608
2018-03-07T03:05:57.263Z,98608
2018-03-07T03:11:00.371Z,98607
2018-03-07T03:16:03.874Z,98613
2018-03-07T03:21:08.465Z,98614
2018-03-07T03:26:12.693Z,98620
2018-03-07T03:31:16.196Z,98615
2018-03-07T03:36:19.716Z,98614
2018-03-07T03:41:22.810Z,98622
2018-03-07T03:46:27.252Z,98623
2018-03-07T03:51:30.757Z,98622
2018-03-07T03:56:35.204Z,98620
2018-03-07T04:01:39.055Z,98626
2018-03-07T04:06:42.953Z,98633
2018-03-07T04:11:47.201Z,98634
2018-03-07T04:16:51.635Z,98639
2018-03-07T04:21:55.579Z,98637
2018-03-07T04:27:00.231Z,98638
2018-03-07T04:32:04.085Z,98640
2018-03-07T04:37:08.511Z,98642
2018-03-07T04:42:12.953Z,98640
2018-03-07T04:47:17.401Z,98653
2018-03-07T04:52:21.842Z,98657
2018-03-07T04:57:25.691Z,98661
2018-03-07T05:02:30.120Z,98655
2018-03-07T05:07:34.776Z,98652
2018-03-07T05:12:39.206Z,98650
2018-03-07T05:17:43.626Z,98651
2018-03-07T05:22:47.471Z,98648
2018-03-07T05:27:51.900Z,98642
2018-03-07T05:32:55.759Z,98631
2018-03-07T05:37:59.236Z,98627
2018-03-07T05:43:03.682Z,98640
2018-03-07T05:48:08.153Z,98645
2018-03-07T05:53:12.580Z,98650
2018-03-07T05:58:15.798Z,98647
2018-03-07T06:03:18.867Z,98654
2018-03-07T06:08:21.972Z,98652
2018-03-07T06:13:26.421Z,98654
2018-03-07T06:18:31.685Z,98657
2018-03-07T06:23:36.277Z,98664
2018-03-07T06:28:39.772Z,98671
2018-03-07T06:33:43.616Z,98667
2018-03-07T06:38:46.711Z,98679
2018-03-07T06:43:51.138Z,98692
2018-03-07T06:48:55.200Z,98716
2018-03-07T06:53:58.684Z,98714
2018-03-07T06:59:03.098Z,98719
2018-03-07T07:04:06.203Z,98722
2018-03-07T07:09:10.642Z,98720
2018-03-07T07:14:15.257Z,98732
2018-03-07T07:19:19.685Z,98738
2018-03-07T07:24:23.931Z,98736
2018-03-07T07:29:28.363Z,98732
2018-03-07T07:34:32.798Z,98735
2018-03-07T07:39:37.213Z,98744
2018-03-07T07:44:40.308Z,98748
2018-03-07T07:49:44.727Z,98752
2018-03-07T07:54:49.339Z,98750
2018-03-07T07:59:53.941Z,98757
2018-03-07T08:04:57.416Z,98766
2018-03-07T08:10:00.507Z,98768
2018-03-07T08:15:03.996Z,98770
2018-03-07T08:20:07.073Z,98771
2018-03-07T08:25:11.765Z,98763
2018-03-07T08:30:15.976Z,98774
2018-03-07T08:35:19.047Z,98776
2018-03-07T08:40:23.479Z,98780
2018-03-07T08:45:26.568Z,98782
2018-03-07T08:50:29.651Z,98775
2018-03-07T08:55:33.107Z,98778
2018-03-07T09:00:36.983Z,98780
2018-03-07T09:05:40.435Z,98783
2018-03-07T09:10:44.287Z,98788
2018-03-07T09:15:48.907Z,98791
2018-03-07T09:20:52.394Z,98790
2018-03-07T09:25:56.257Z,98799
2018-03-07T09:30:59.343Z,98796
2018-03-07T09:36:03.776Z,98807
2018-03-07T09:41:08.220Z,98807
2018-03-07T09:46:11.283Z,98811
2018-03-07T09:51:15.513Z,98811
2018-03-07T09:56:19.771Z,98812
2018-03-07T10:01:24.171Z,98816
2018-03-07T10:06:28.385Z,98816
2018-03-07T10:11:32.238Z,98814
2018-03-07T10:16:35.354Z,98818
2018-03-07T10:21:39.731Z,98817
2018-03-07T10:26:44.326Z,98822
2018-03-07T10:31:48.755Z,98820
2018-03-07T10:36:52.601Z,98823
2018-03-07T10:41:56.432Z,98824
2018-03-07T10:47:00.854Z,98828
2018-03-07T10:52:06.371Z,98830
2018-03-07T10:57:09.875Z,98822
2018-03-07T11:02:13.735Z,98821
2018-03-07T11:07:16.821Z,98830
2018-03-07T11:12:20.687Z,98834
2018-03-07T11:17:24.547Z,98827
2018-03-07T11:22:29.745Z,98832
2018-03-07T11:27:33.928Z,98830
2018-03-07T11:32:37.380Z,98836
2018-03-07T11:37:40.464Z,98835
2018-03-07T11:42:43.547Z,98832
2018-03-07T11:47:46.643Z,98847
2018-03-07T11:52:50.852Z,98854
2018-03-07T11:57:54.707Z,98852
2018-03-07T12:02:58.187Z,98861
2018-03-07T12:08:01.264Z,98851
2018-03-07T12:13:05.119Z,98847
2018-03-07T12:18:08.884Z,98855
2018-03-07T12:23:13.319Z,98851
2018-03-07T12:28:17.168Z,98846
2018-03-07T12:33:21.753Z,98848
2018-03-07T12:38:24.843Z,98852
2018-03-07T12:43:27.927Z,98847
2018-03-07T12:48:31.002Z,98850
2018-03-07T12:53:34.467Z,98854
2018-03-07T12:58:38.172Z,98848
2018-03-07T13:03:42.372Z,98848
2018-03-07T13:08:46.216Z,98846
2018-03-07T13:13:49.318Z,98847
2018-03-07T13:18:53.143Z,98850
2018-03-07T13:23:56.619Z,98851
2018-03-07T13:29:00.123Z,98858
2018-03-07T13:34:04.451Z,98854
2018-03-07T13:39:08.023Z,98852
2018-03-07T13:44:12.931Z,98856
2018-03-07T13:49:16.391Z,98855
2018-03-07T13:54:20.223Z,98858
2018-03-07T13:59:23.302Z,98851
2018-03-07T14:04:26.416Z,98848
2018-03-07T14:09:29.921Z,98855
2018-03-07T14:14:33.272Z,98858
2018-03-07T14:19:37.190Z,98865
2018-03-07T14:24:41.122Z,98866
2018-03-07T14:29:46.007Z,98870
2018-03-07T14:34:49.087Z,98873
2018-03-07T14:39:52.557Z,98872
2018-03-07T14:44:56.756Z,98876
2018-03-07T14:50:00.951Z,98878
2018-03-07T14:55:05.227Z,98880
2018-03-07T15:00:08.661Z,98875
2018-03-07T15:05:12.491Z,98878
2018-03-07T15:10:15.576Z,98887
2018-03-07T15:15:20.008Z,98887
2018-03-07T15:20:24.577Z,98887
2018-03-07T15:25:28.418Z,98889
2018-03-07T15:30:33.041Z,98890
2018-03-07T15:35:36.116Z,98890
2018-03-07T15:40:39.201Z,98890
2018-03-07T15:45:42.279Z,98897
2018-03-07T15:50:45.347Z,98895
2018-03-07T15:55:49.192Z,98895
2018-03-07T16:00:53.059Z,98904
2018-03-07T16:05:56.944Z,98906
2018-03-07T16:11:00.736Z,98906
2018-03-07T16:16:03.806Z,98913
2018-03-07T16:21:08.047Z,98918
2018-03-07T16:26:11.896Z,98917
2018-03-07T16:31:15.740Z,98917
2018-03-07T16:36:18.827Z,98927
2018-03-07T16:41:21.950Z,98936
2018-03-07T16:46:26.379Z,98938
2018-03-07T16:51:29.887Z,98947
2018-03-07T16:56:34.100Z,98952
2018-03-07T17:01:37.204Z,98951
2018-03-07T17:06:42.153Z,98955
2018-03-07T17:11:46.347Z,98965
2018-03-07T17:16:50.771Z,98968
2018-03-07T17:21:55.198Z,98974
2018-03-07T17:26:59.630Z,98983
2018-03-07T17:32:03.140Z,98996
2018-03-07T17:37:07.617Z,99005
2018-03-07T17:42:11.460Z,99007
2018-03-07T17:47:14.537Z,99019
2018-03-07T17:52:17.649Z,99025
2018-03-07T17:57:20.739Z,99031
2018-03-07T18:02:25.312Z,99044
2018-03-07T18:07:29.744Z,99053
2018-03-07T18:12:33.240Z,99061
2018-03-07T18:17:37.851Z,99062
2018-03-07T18:22:43.233Z,99071
2018-03-07T18:27:47.436Z,99075
2018-03-07T18:32:51.850Z,99079
2018-03-07T18:37:54.915Z,99085
2018-03-07T18:42:57.980Z,99091
2018-03-07T18:48:02.415Z,99100
2018-03-07T18:53:06.995Z,99105
2018-03-07T18:58:10.827Z,99107
2018-03-07T19:03:15.816Z,99118
2018-03-07T19:08:20.407Z,99116
2018-03-07T19:13:24.260Z,99118
2018-03-07T19:18:28.690Z,99122
2018-03-07T19:23:32.911Z,99119
2018-03-07T19:28:37.339Z,99125
2018-03-07T19:33:41.628Z,99132
2018-03-07T19:38:44.725Z,99130
2018-03-07T19:43:48.213Z,99137
2018-03-07T19:48:51.698Z,99139
2018-03-07T19:53:56.843Z,99145
2018-03-07T19:59:00.339Z,99150
2018-03-07T20:04:04.597Z,99152
2018-03-07T20:09:08.865Z,99152
2018-03-07T20:14:12.696Z,99161
2018-03-07T20:19:15.793Z,99164
2018-03-07T20:24:18.888Z,99168
2018-03-07T20:29:21.973Z,99172
2018-03-07T20:34:26.411Z,99177
2018-03-07T20:39:30.877Z,99186
2018-03-07T20:44:35.315Z,99192
2018-03-07T20:49:39.743Z,99201
2018-03-07T20:54:44.071Z,99213
2018-03-07T20:59:48.567Z,99219
2018-03-07T21:04:52.840Z,99229
2018-03-07T21:09:55.915Z,99232
2018-03-07T21:14:59.024Z,99250
2018-03-07T21:20:03.070Z,99257
2018-03-07T21:25:06.984Z,99271
2018-03-07T21:30:10.479Z,99275
2018-03-07T21:35:13.952Z,99283
2018-03-07T21:40:18.379Z,99289
2018-03-07T21:45:22.987Z,99300
2018-03-07T21:50:26.061Z,99306
2018-03-07T21:55:29.162Z,99308
2018-03-07T22:00:32.613Z,99326
2018-03-07T22:05:37.967Z,99336
2018-03-07T22:10:42.446Z,99344
2018-03-07T22:15:45.535Z,99353
2018-03-07T22:20:48.631Z,99353
2018-03-07T22:25:52.483Z,99362
2018-03-07T22:30:56.948Z,99360
2018-03-07T22:36:00.451Z,99364
2018-03-07T22:41:04.919Z,99363
2018-03-07T22:46:08.783Z,99366
2018-03-07T22:51:12.726Z,99369
2018-03-07T22:56:15.808Z,99373
2018-03-07T23:01:19.306Z,99384
2018-03-07T23:06:23.544Z,99388
2018-03-07T23:11:27.047Z,99393
2018-03-07T23:16:31.524Z,99399
2018-03-07T23:21:35.971Z,99409
2018-03-07T23:26:40.450Z,99418
2018-03-07T23:31:45.213Z,99422
2018-03-07T23:36:48.722Z,99434
2018-03-07T23:41:53.506Z,99440
2018-03-07T23:46:57.372Z,99447
2018-03-07T23:52:01.620Z,99450
2018-03-07T23:57:08.068Z,99463
